createdAt,value
2023-04-18T00:00:19.264Z,8.44
2023-04-18T00:02:48.024Z,8.42
2023-04-18T00:05:18.210Z,8.39
2023-04-18T00:07:49.872Z,8.34
2023-04-18T00:10:19.569Z,8.31
2023-04-18T00:12:49.052Z,8.28
2023-04-18T00:15:18.511Z,8.30
2023-04-18T00:17:48.342Z,8.22
2023-04-18T00:20:16.893Z,8.19
2023-04-18T00:22:46.796Z,8.27
2023-04-18T00:25:15.858Z,8.17
2023-04-18T00:27:45.888Z,8.17
2023-04-18T00:30:15.449Z,8.16
2023-04-18T00:32:43.895Z,8.12
2023-04-18T00:35:12.391Z,8.18
2023-04-18T00:37:40.933Z,8.12
2023-04-18T00:40:11.558Z,8.14
2023-04-18T00:42:40.678Z,8.08
2023-04-18T00:45:11.985Z,8.09
2023-04-18T00:47:40.472Z,8.09
2023-04-18T00:50:11.317Z,8.04
2023-04-18T00:52:39.971Z,7.97
2023-04-18T00:55:10.420Z,7.97
2023-04-18T00:57:39.376Z,7.94
2023-04-18T01:00:12.553Z,7.95
2023-04-18T01:02:42.084Z,7.91
2023-04-18T01:05:11.540Z,7.89
2023-04-18T01:07:42.023Z,7.90
2023-04-18T01:10:12.086Z,7.86
2023-04-18T01:12:41.533Z,7.82
2023-04-18T01:15:12.832Z,7.68
2023-04-18T01:17:41.617Z,7.70
2023-04-18T01:20:12.335Z,7.67
2023-04-18T01:22:41.789Z,7.64
2023-04-18T01:25:13.128Z,7.73
2023-04-18T01:27:41.593Z,7.73
2023-04-18T01:30:12.008Z,7.63
2023-04-18T01:32:40.465Z,7.50
2023-04-18T01:35:10.418Z,7.50
2023-04-18T01:37:38.868Z,7.40
2023-04-18T01:40:12.217Z,7.28
2023-04-18T01:42:40.700Z,7.33
2023-04-18T01:45:09.599Z,7.24
2023-04-18T01:47:38.054Z,7.19
2023-04-18T01:50:08.093Z,7.27
2023-04-18T01:52:36.537Z,7.24
2023-04-18T01:55:06.233Z,7.22
2023-04-18T01:57:36.740Z,7.16
2023-04-18T02:00:06.282Z,7.11
2023-04-18T02:02:42.786Z,6.99
2023-04-18T02:05:11.475Z,6.89
2023-04-18T02:07:41.170Z,6.91
2023-04-18T02:10:10.904Z,6.89
2023-04-18T02:12:40.761Z,6.86
2023-04-18T02:15:10.706Z,6.85
2023-04-18T02:17:39.232Z,6.83
2023-04-18T02:20:09.311Z,6.92
2023-04-18T02:22:39.506Z,6.82
2023-04-18T02:25:09.224Z,6.77
2023-04-18T02:27:37.604Z,6.79
2023-04-18T02:30:09.101Z,6.74
2023-04-18T02:32:37.590Z,6.72
2023-04-18T02:35:07.044Z,6.75
2023-04-18T02:37:35.417Z,6.67
2023-04-18T02:40:05.639Z,6.66
2023-04-18T02:42:34.078Z,6.63
2023-04-18T02:45:03.494Z,6.70
2023-04-18T02:47:40.488Z,6.72
2023-04-18T02:50:18.654Z,6.63
2023-04-18T02:52:47.071Z,6.59
2023-04-18T02:55:15.750Z,6.56
2023-04-18T02:57:46.142Z,6.50
2023-04-18T03:00:39.855Z,6.46
2023-04-18T03:03:36.506Z,6.56
2023-04-18T03:06:37.263Z,6.53
2023-04-18T03:09:06.272Z,6.53
2023-04-18T03:11:38.040Z,6.53
2023-04-18T03:14:07.332Z,6.46
2023-04-18T03:16:47.978Z,6.48
2023-04-18T03:19:21.898Z,6.35
2023-04-18T03:21:51.887Z,6.40
2023-04-18T03:24:20.266Z,6.45
2023-04-18T03:26:52.047Z,6.57
2023-04-18T03:29:23.858Z,6.49
2023-04-18T03:31:52.943Z,6.53
2023-04-18T03:34:22.676Z,6.45
2023-04-18T03:36:51.473Z,6.44
2023-04-18T03:39:19.822Z,6.43
2023-04-18T03:41:49.392Z,6.51
2023-04-18T03:44:17.861Z,6.50
2023-04-18T03:46:47.059Z,6.33
2023-04-18T03:49:15.786Z,6.36
2023-04-18T03:51:48.441Z,6.41
2023-04-18T03:54:17.262Z,6.34
2023-04-18T03:56:46.593Z,6.33
2023-04-18T03:59:16.438Z,6.31
2023-04-18T04:01:48.743Z,6.28
2023-04-18T04:04:17.624Z,6.13
2023-04-18T04:06:47.745Z,6.14
2023-04-18T04:09:17.924Z,6.43
2023-04-18T04:11:46.975Z,6.44
2023-04-18T04:14:16.985Z,6.42
2023-04-18T04:16:47.689Z,6.46
2023-04-18T04:19:18.619Z,6.49
2023-04-18T04:21:57.037Z,6.38
2023-04-18T04:24:25.574Z,6.26
2023-04-18T04:26:54.736Z,6.39
2023-04-18T04:29:26.358Z,6.54
2023-04-18T04:31:54.885Z,6.54
2023-04-18T04:34:36.862Z,6.50
2023-04-18T04:37:09.223Z,6.58
2023-04-18T04:39:46.675Z,6.49
2023-04-18T04:42:41.170Z,6.72
2023-04-18T04:45:16.303Z,6.42
2023-04-18T04:47:44.770Z,6.24
2023-04-18T04:50:15.585Z,6.19
2023-04-18T04:52:45.487Z,6.15
2023-04-18T04:55:14.049Z,6.11
2023-04-18T04:57:44.748Z,6.15
2023-04-18T05:00:26.990Z,6.18
2023-04-18T05:02:58.553Z,6.14
2023-04-18T05:05:28.685Z,6.19
2023-04-18T05:07:58.479Z,6.06
2023-04-18T05:10:26.962Z,6.24
2023-04-18T05:12:55.340Z,6.28
2023-04-18T05:15:25.122Z,6.23
2023-04-18T05:17:53.729Z,6.25
2023-04-18T05:20:22.484Z,6.19
2023-04-18T05:22:51.284Z,6.20
2023-04-18T05:25:21.198Z,6.19
2023-04-18T05:27:49.570Z,6.29
2023-04-18T05:30:18.237Z,6.30
2023-04-18T05:32:46.610Z,6.29
2023-04-18T05:35:14.993Z,6.44
2023-04-18T05:37:43.372Z,6.40
2023-04-18T05:40:14.078Z,6.33
2023-04-18T05:42:43.902Z,6.34
2023-04-18T05:45:13.079Z,6.50
2023-04-18T05:47:41.501Z,6.64
2023-04-18T05:50:11.077Z,6.57
2023-04-18T05:52:39.848Z,6.64
2023-04-18T05:55:09.287Z,6.50
2023-04-18T05:57:37.849Z,6.60
2023-04-18T06:00:11.617Z,6.62
2023-04-18T06:02:43.037Z,6.64
2023-04-18T06:05:13.199Z,6.74
2023-04-18T06:07:41.690Z,6.72
2023-04-18T06:10:13.462Z,6.78
2023-04-18T06:12:42.092Z,6.87
2023-04-18T06:15:13.052Z,6.90
2023-04-18T06:17:41.672Z,6.90
2023-04-18T06:20:12.105Z,6.80
2023-04-18T06:22:40.631Z,6.83
2023-04-18T06:25:10.149Z,6.99
2023-04-18T06:27:38.776Z,7.03
2023-04-18T06:30:08.899Z,6.94
2023-04-18T06:32:38.762Z,6.99
2023-04-18T06:35:08.347Z,7.00
2023-04-18T06:37:36.828Z,6.92
2023-04-18T06:40:06.044Z,6.97
2023-04-18T06:42:34.407Z,7.01
2023-04-18T06:45:03.704Z,7.14
2023-04-18T06:47:32.429Z,7.16
2023-04-18T06:50:02.251Z,7.14
2023-04-18T06:52:30.613Z,7.22
2023-04-18T06:54:58.910Z,7.25
2023-04-18T06:57:27.441Z,7.32
2023-04-18T06:59:55.763Z,7.34
2023-04-18T07:02:24.183Z,7.40
2023-04-18T07:04:52.593Z,7.42
2023-04-18T07:07:22.518Z,7.39
2023-04-18T07:09:52.733Z,7.42
2023-04-18T07:12:21.116Z,7.42
2023-04-18T07:14:49.516Z,7.47
2023-04-18T07:17:18.054Z,7.59
2023-04-18T07:19:46.543Z,7.58
2023-04-18T07:22:14.987Z,7.66
2023-04-18T07:24:44.699Z,7.77
2023-04-18T07:27:13.102Z,7.83
2023-04-18T07:29:41.497Z,7.93
2023-04-18T07:32:10.671Z,7.99
2023-04-18T07:34:40.353Z,7.98
2023-04-18T07:37:08.888Z,8.03
2023-04-18T07:39:37.278Z,8.23
2023-04-18T07:42:07.804Z,8.28
2023-04-18T07:44:37.314Z,8.28
2023-04-18T07:47:09.956Z,8.27
2023-04-18T07:49:39.163Z,8.25
2023-04-18T07:52:09.173Z,8.35
2023-04-18T07:54:37.598Z,8.37
2023-04-18T07:57:07.521Z,8.50
2023-04-18T07:59:36.047Z,8.59
2023-04-18T08:02:04.659Z,8.70
2023-04-18T08:04:33.229Z,8.84
2023-04-18T08:07:01.646Z,8.93
2023-04-18T08:09:34.331Z,8.96
2023-04-18T08:12:03.270Z,8.93
2023-04-18T08:14:33.442Z,9.11
2023-04-18T08:17:01.792Z,9.17
2023-04-18T08:19:30.188Z,9.32
2023-04-18T08:22:10.248Z,9.43
2023-04-18T08:24:39.374Z,9.43
2023-04-18T08:27:08.203Z,9.48
2023-04-18T08:29:37.963Z,9.56
2023-04-18T08:32:08.689Z,9.56
2023-04-18T08:34:38.158Z,9.68
2023-04-18T08:37:07.361Z,9.88
2023-04-18T08:39:36.196Z,9.80
2023-04-18T08:42:07.243Z,10.04
2023-04-18T08:44:37.417Z,10.34
2023-04-18T08:47:06.245Z,10.71
2023-04-18T08:49:34.656Z,10.95
2023-04-18T08:52:03.842Z,11.27
2023-04-18T08:54:32.679Z,10.96
2023-04-18T08:57:08.771Z,10.80
2023-04-18T08:59:38.582Z,10.79
2023-04-18T09:02:10.145Z,11.38
2023-04-18T09:04:41.053Z,11.78
2023-04-18T09:07:11.900Z,12.64
2023-04-18T09:09:45.941Z,12.83
2023-04-18T09:12:18.326Z,13.46
2023-04-18T09:14:50.392Z,13.49
2023-04-18T09:17:36.963Z,13.51
2023-04-18T09:20:10.376Z,13.25
2023-04-18T09:22:47.730Z,12.99
2023-04-18T09:25:27.517Z,12.62
2023-04-18T09:27:57.288Z,12.49
2023-04-18T09:30:37.716Z,12.25
2023-04-18T09:33:09.619Z,12.43
2023-04-18T09:35:38.566Z,12.36
2023-04-18T09:38:09.002Z,11.87
2023-04-18T09:40:37.643Z,11.76
2023-04-18T09:43:20.521Z,11.74
2023-04-18T09:45:50.285Z,11.67
2023-04-18T09:48:18.950Z,11.66
2023-04-18T09:50:48.873Z,11.62
2023-04-18T09:53:21.304Z,11.73
2023-04-18T09:55:56.972Z,11.98
2023-04-18T09:58:29.521Z,12.16
2023-04-18T10:01:00.201Z,12.27
2023-04-18T10:03:35.719Z,12.41
2023-04-18T10:06:05.082Z,12.15
2023-04-18T10:08:34.217Z,12.31
2023-04-18T10:11:02.741Z,12.10
2023-04-18T10:13:32.159Z,12.61
2023-04-18T10:16:02.438Z,12.67
2023-04-18T10:18:30.917Z,12.88
2023-04-18T10:21:04.199Z,12.71
2023-04-18T10:23:39.096Z,12.84
2023-04-18T10:26:08.234Z,13.02
2023-04-18T10:28:54.527Z,12.89
2023-04-18T10:31:26.008Z,12.64
2023-04-18T10:36:28.546Z,12.63
2023-04-18T10:39:03.223Z,12.86
2023-04-18T10:41:33.305Z,13.07
2023-04-18T10:44:22.538Z,13.41
2023-04-18T10:47:22.412Z,13.87
2023-04-18T10:49:59.070Z,14.32
2023-04-18T10:52:28.995Z,14.27
2023-04-18T10:55:09.943Z,15.19
2023-04-18T10:57:46.935Z,14.80
2023-04-18T11:00:18.097Z,15.08
2023-04-18T11:02:57.772Z,14.86
2023-04-18T11:05:30.715Z,14.72
2023-04-18T11:07:59.020Z,15.02
2023-04-18T11:10:29.503Z,14.97
2023-04-18T11:13:04.372Z,15.11
2023-04-18T11:15:32.897Z,14.55
2023-04-18T11:18:04.658Z,14.39
2023-04-18T11:20:40.986Z,14.16
2023-04-18T11:23:20.568Z,14.06
2023-04-18T11:25:52.024Z,14.07
2023-04-18T11:28:22.297Z,14.09
2023-04-18T11:30:51.017Z,13.83
2023-04-18T11:33:20.799Z,13.81
2023-04-18T11:35:49.246Z,13.77
2023-04-18T11:38:18.532Z,13.76
2023-04-18T11:40:49.454Z,13.66
2023-04-18T11:43:22.773Z,13.73
2023-04-18T11:45:56.281Z,13.85
2023-04-18T11:48:35.516Z,13.80
2023-04-18T11:51:03.865Z,13.74
2023-04-18T11:53:36.726Z,13.78
2023-04-18T11:56:06.424Z,13.76
2023-04-18T11:58:36.323Z,13.70
2023-04-18T12:01:18.889Z,13.78
2023-04-18T12:04:03.578Z,13.80
2023-04-18T12:06:47.508Z,13.52
2023-04-18T12:09:16.225Z,13.78
2023-04-18T12:11:44.775Z,13.71
2023-04-18T12:14:23.089Z,13.83
2023-04-18T12:16:52.028Z,13.75
2023-04-18T12:19:22.006Z,13.87
2023-04-18T12:22:00.619Z,13.87
2023-04-18T12:24:29.915Z,13.93
2023-04-18T12:26:58.638Z,13.99
2023-04-18T12:29:28.070Z,14.08
2023-04-18T12:31:56.715Z,14.02
2023-04-18T12:34:26.673Z,13.94
2023-04-18T12:36:55.354Z,13.77
2023-04-18T12:39:23.716Z,13.86
2023-04-18T12:41:52.055Z,13.87
2023-04-18T12:44:20.961Z,13.87
2023-04-18T12:46:49.302Z,13.82
2023-04-18T12:49:17.709Z,13.83
2023-04-18T12:51:47.384Z,13.76
2023-04-18T12:54:15.956Z,13.84
2023-04-18T12:56:46.335Z,13.90
2023-04-18T12:59:14.960Z,13.96
2023-04-18T13:01:43.827Z,14.04
2023-04-18T13:04:13.383Z,13.98
2023-04-18T13:06:44.079Z,13.82
2023-04-18T13:09:16.640Z,13.65
2023-04-18T13:11:49.530Z,13.67
2023-04-18T13:14:17.986Z,13.65
2023-04-18T13:16:48.611Z,13.65
2023-04-18T13:19:16.969Z,13.61
2023-04-18T13:21:46.115Z,13.59
2023-04-18T13:24:16.984Z,13.58
2023-04-18T13:26:45.366Z,13.60
2023-04-18T13:29:13.989Z,13.58
2023-04-18T13:31:42.505Z,13.63
2023-04-18T13:34:10.815Z,13.66
2023-04-18T13:36:39.982Z,13.65
2023-04-18T13:39:08.778Z,13.69
2023-04-18T13:41:38.564Z,13.72
2023-04-18T13:44:08.238Z,13.82
2023-04-18T13:46:36.590Z,13.86
2023-04-18T13:49:04.923Z,13.91
2023-04-18T13:51:33.344Z,13.78
2023-04-18T13:54:01.783Z,13.97
2023-04-18T13:56:30.128Z,14.08
2023-04-18T13:58:59.877Z,14.03
2023-04-18T14:01:28.686Z,14.16
2023-04-18T14:03:57.154Z,14.32
2023-04-18T14:06:27.713Z,14.57
2023-04-18T14:08:56.123Z,14.56
2023-04-18T14:11:24.612Z,14.37
2023-04-18T14:13:53.182Z,14.25
2023-04-18T14:16:23.503Z,14.28
2023-04-18T14:18:53.862Z,14.32
2023-04-18T14:21:22.586Z,14.23
2023-04-18T14:23:52.933Z,14.29
2023-04-18T14:26:22.339Z,14.21
2023-04-18T14:28:50.914Z,14.03
2023-04-18T14:31:19.563Z,13.97
2023-04-18T14:33:49.534Z,14.04
2023-04-18T14:36:18.380Z,13.93
2023-04-18T14:38:49.619Z,13.87
2023-04-18T14:41:18.264Z,13.91
2023-04-18T14:43:46.750Z,13.87
2023-04-18T14:46:16.490Z,14.02
2023-04-18T14:48:47.129Z,13.93
2023-04-18T14:51:19.206Z,14.03
2023-04-18T14:53:47.614Z,14.22
2023-04-18T14:56:16.432Z,14.36
2023-04-18T14:58:44.924Z,14.45
2023-04-18T15:01:13.327Z,14.25
2023-04-18T15:03:42.059Z,14.23
2023-04-18T15:06:10.502Z,14.26
2023-04-18T15:08:40.643Z,14.24
2023-04-18T15:11:09.657Z,14.32
2023-04-18T15:13:38.054Z,14.45
2023-04-18T15:16:07.786Z,14.28
2023-04-18T15:18:36.223Z,14.19
2023-04-18T15:21:06.538Z,14.16
2023-04-18T15:23:34.920Z,14.20
2023-04-18T15:26:05.015Z,14.02
2023-04-18T15:28:33.391Z,14.12
2023-04-18T15:31:01.817Z,14.02
2023-04-18T15:33:30.362Z,14.06
2023-04-18T15:35:58.834Z,14.17
2023-04-18T15:38:27.266Z,14.21
2023-04-18T15:40:55.658Z,14.43
2023-04-18T15:43:25.503Z,14.40
2023-04-18T15:45:53.898Z,14.14
2023-04-18T15:48:22.277Z,14.14
2023-04-18T15:50:52.164Z,13.98
2023-04-18T15:53:20.824Z,13.80
2023-04-18T15:55:49.273Z,13.77
2023-04-18T15:58:17.686Z,13.75
2023-04-18T16:00:47.810Z,13.64
2023-04-18T16:03:16.420Z,13.45
2023-04-18T16:05:45.135Z,13.52
2023-04-18T16:08:13.518Z,13.69
2023-04-18T16:10:42.112Z,13.54
2023-04-18T16:13:10.518Z,13.75
2023-04-18T16:15:41.499Z,13.64
2023-04-18T16:18:11.665Z,13.64
2023-04-18T16:20:40.197Z,13.46
2023-04-18T16:23:08.638Z,13.33
2023-04-18T16:25:37.128Z,13.33
2023-04-18T16:28:06.163Z,13.30
2023-04-18T16:30:34.566Z,13.25
2023-04-18T16:33:03.872Z,13.10
2023-04-18T16:35:33.845Z,13.09
2023-04-18T16:38:02.394Z,13.08
2023-04-18T16:40:31.947Z,13.11
2023-04-18T16:43:00.498Z,13.00
2023-04-18T16:45:29.171Z,12.98
2023-04-18T16:47:58.348Z,13.05
2023-04-18T16:50:27.590Z,12.97
2023-04-18T16:52:57.464Z,12.82
2023-04-18T16:55:26.799Z,12.73
2023-04-18T16:57:55.648Z,12.72
2023-04-18T17:00:24.530Z,12.68
2023-04-18T17:02:55.376Z,12.69
2023-04-18T17:05:24.207Z,12.75
2023-04-18T17:07:52.736Z,12.72
2023-04-18T17:10:22.547Z,12.67
2023-04-18T17:12:51.082Z,12.64
2023-04-18T17:15:21.156Z,12.52
2023-04-18T17:17:50.415Z,12.46
2023-04-18T17:20:19.542Z,12.35
2023-04-18T17:22:48.046Z,12.21
2023-04-18T17:25:16.870Z,12.24
2023-04-18T17:27:46.644Z,12.26
2023-04-18T17:30:15.253Z,12.28
2023-04-18T17:32:46.107Z,12.25
2023-04-18T17:35:15.654Z,12.12
2023-04-18T17:37:44.173Z,12.07
2023-04-18T17:40:13.744Z,12.06
2023-04-18T17:42:42.273Z,12.02
2023-04-18T17:45:12.333Z,11.90
2023-04-18T17:47:41.122Z,11.90
2023-04-18T17:50:10.786Z,11.91
2023-04-18T17:52:39.674Z,11.85
2023-04-18T17:55:09.267Z,11.84
2023-04-18T17:57:38.319Z,11.76
2023-04-18T18:00:11.334Z,11.79
2023-04-18T18:02:45.126Z,11.72
2023-04-18T18:05:14.456Z,11.66
2023-04-18T18:07:47.393Z,11.74
2023-04-18T18:10:19.034Z,11.61
2023-04-18T18:12:47.567Z,11.66
2023-04-18T18:15:16.435Z,11.65
2023-04-18T18:17:46.515Z,11.59
2023-04-18T18:20:15.212Z,11.60
2023-04-18T18:22:44.086Z,11.56
2023-04-18T18:25:12.613Z,11.57
2023-04-18T18:27:41.209Z,11.61
2023-04-18T18:30:10.598Z,11.51
2023-04-18T18:32:39.121Z,11.49
2023-04-18T18:35:10.893Z,11.51
2023-04-18T18:37:39.480Z,11.51
2023-04-18T18:40:10.081Z,11.32
2023-04-18T18:42:39.075Z,11.35
2023-04-18T18:45:09.531Z,11.36
2023-04-18T18:47:39.809Z,11.28
2023-04-18T18:50:11.715Z,11.33
2023-04-18T18:52:58.775Z,11.40
2023-04-18T18:55:27.769Z,11.44
2023-04-18T18:57:56.833Z,11.28
2023-04-18T19:00:25.606Z,11.32
2023-04-18T19:02:54.129Z,11.37
2023-04-18T19:05:24.587Z,11.41
2023-04-18T19:07:53.268Z,11.38
2023-04-18T19:10:22.160Z,11.37
2023-04-18T19:12:51.057Z,11.33
2023-04-18T19:15:19.529Z,11.35
2023-04-18T19:17:48.190Z,11.34
2023-04-18T19:20:16.966Z,11.33
2023-04-18T19:22:50.097Z,11.31
2023-04-18T19:25:18.621Z,11.27
2023-04-18T19:27:47.009Z,11.24
2023-04-18T19:30:15.651Z,11.12
2023-04-18T19:32:44.414Z,11.12
2023-04-18T19:35:13.363Z,11.22
2023-04-18T19:37:41.853Z,11.13
2023-04-18T19:40:14.439Z,11.17
2023-04-18T19:42:42.830Z,11.09
2023-04-18T19:45:15.116Z,11.16
2023-04-18T19:47:44.332Z,11.10
2023-04-18T19:50:14.383Z,11.13
2023-04-18T19:52:42.836Z,11.08
2023-04-18T19:55:13.007Z,11.14
2023-04-18T19:57:42.179Z,11.06
2023-04-18T20:00:15.989Z,11.08
2023-04-18T20:02:44.742Z,11.09
2023-04-18T20:05:13.931Z,11.03
2023-04-18T20:07:42.666Z,11.09
2023-04-18T20:10:23.317Z,11.02
2023-04-18T20:12:51.724Z,10.96
2023-04-18T20:15:20.524Z,11.02
2023-04-18T20:17:48.892Z,11.03
2023-04-18T20:20:17.289Z,10.99
2023-04-18T20:22:47.391Z,10.99
2023-04-18T20:25:16.030Z,10.99
2023-04-18T20:27:45.727Z,10.96
2023-04-18T20:30:14.869Z,10.98
2023-04-18T20:32:43.241Z,10.94
2023-04-18T20:35:12.512Z,10.94
2023-04-18T20:37:41.394Z,10.90
2023-04-18T20:40:11.386Z,11.00
2023-04-18T20:42:39.743Z,10.92
2023-04-18T20:45:11.692Z,10.89
2023-04-18T20:47:41.275Z,10.93
2023-04-18T20:50:11.290Z,10.90
2023-04-18T20:52:42.640Z,10.92
2023-04-18T20:55:11.858Z,10.82
2023-04-18T20:57:40.324Z,10.86
2023-04-18T21:00:13.459Z,10.88
2023-04-18T21:02:42.372Z,10.84
2023-04-18T21:05:11.161Z,10.87
2023-04-18T21:07:39.584Z,10.86
2023-04-18T21:10:09.325Z,10.84
2023-04-18T21:12:37.690Z,10.83
2023-04-18T21:15:07.451Z,10.74
2023-04-18T21:17:37.148Z,10.87
2023-04-18T21:20:08.094Z,10.82
2023-04-18T21:22:36.619Z,10.74
2023-04-18T21:25:05.440Z,10.77
2023-04-18T21:27:33.759Z,10.69
2023-04-18T21:30:04.665Z,10.72
2023-04-18T21:32:33.365Z,10.62
2023-04-18T21:35:03.078Z,10.59
2023-04-18T21:37:32.120Z,10.57
2023-04-18T21:40:01.550Z,10.54
2023-04-18T21:42:29.914Z,10.47
2023-04-18T21:44:58.186Z,10.47
2023-04-18T21:47:26.590Z,10.51
2023-04-18T21:49:55.628Z,10.51
2023-04-18T21:52:25.336Z,10.54
2023-04-18T21:54:53.801Z,10.56
2023-04-18T21:57:22.106Z,10.62
2023-04-18T21:59:50.485Z,10.62
2023-04-18T22:02:19.017Z,10.59
2023-04-18T22:04:48.146Z,10.57
2023-04-18T22:07:18.552Z,10.51
2023-04-18T22:09:48.742Z,10.52
2023-04-18T22:12:17.080Z,10.40
2023-04-18T22:14:48.299Z,10.36
2023-04-18T22:17:16.777Z,10.41
2023-04-18T22:19:45.151Z,10.38
2023-04-18T22:22:13.494Z,10.39
2023-04-18T22:24:41.926Z,10.40
2023-04-18T22:27:11.691Z,10.39
2023-04-18T22:29:40.084Z,10.39
2023-04-18T22:32:08.396Z,10.38
2023-04-18T22:34:36.705Z,10.38
2023-04-18T22:37:05.102Z,10.38
2023-04-18T22:39:33.450Z,10.43
2023-04-18T22:42:02.646Z,10.36
2023-04-18T22:44:32.379Z,10.35
2023-04-18T22:47:00.864Z,10.34
2023-04-18T22:49:30.077Z,10.33
2023-04-18T22:51:58.615Z,10.34
2023-04-18T22:54:27.109Z,10.36
2023-04-18T22:56:55.925Z,10.37
2023-04-18T22:59:24.362Z,10.37
2023-04-18T23:01:54.181Z,10.19
2023-04-18T23:04:22.756Z,10.38
2023-04-18T23:06:51.434Z,10.36
2023-04-18T23:09:19.767Z,10.33
2023-04-18T23:11:48.148Z,10.38
2023-04-18T23:14:16.793Z,10.40
2023-04-18T23:16:45.280Z,10.28
2023-04-18T23:19:15.027Z,10.27
2023-04-18T23:21:43.498Z,10.34
2023-04-18T23:24:12.310Z,10.35
2023-04-18T23:26:40.857Z,10.37
2023-04-18T23:29:09.139Z,10.38
2023-04-18T23:31:37.535Z,10.35
2023-04-18T23:34:05.927Z,10.28
2023-04-18T23:36:35.966Z,10.28
2023-04-18T23:39:05.321Z,10.30
2023-04-18T23:41:33.705Z,10.34
2023-04-18T23:44:02.082Z,10.34
2023-04-18T23:46:31.107Z,10.34
2023-04-18T23:48:59.456Z,10.37
2023-04-18T23:51:28.037Z,10.35
2023-04-18T23:53:57.798Z,10.29
2023-04-18T23:56:26.385Z,10.33
2023-04-18T23:58:54.960Z,10.17
